createdAt,value
2022-10-05T00:04:28.459Z,4.72
2022-10-05T00:09:35.015Z,3.65
2022-10-05T00:14:35.995Z,5.57
2022-10-05T00:19:35.217Z,7.07
2022-10-05T00:24:40.253Z,5.35
2022-10-05T00:29:38.632Z,4.70
2022-10-05T00:34:37.741Z,3.40
2022-10-05T00:39:36.972Z,8.85
2022-10-05T00:44:43.246Z,6.72
2022-10-05T00:50:18.873Z,4.35
2022-10-05T00:55:24.270Z,4.03
2022-10-05T01:05:34.231Z,5.13
2022-10-05T01:10:41.473Z,5.20
2022-10-05T01:15:51.524Z,7.25
2022-10-05T01:21:12.027Z,3.72
2022-10-05T01:26:35.639Z,4.45
2022-10-05T01:31:40.222Z,4.22
2022-10-05T01:36:45.741Z,5.23
2022-10-05T01:41:50.158Z,4.82
2022-10-05T01:46:58.367Z,5.77
2022-10-05T01:52:09.327Z,4.15
2022-10-05T01:57:17.151Z,3.92
2022-10-05T02:02:23.666Z,4.28
2022-10-05T02:07:30.942Z,4.95
2022-10-05T02:12:33.009Z,4.53
2022-10-05T02:17:41.925Z,4.85
2022-10-05T02:22:43.831Z,3.28
2022-10-05T02:27:49.217Z,3.20
2022-10-05T02:32:54.143Z,3.70
2022-10-05T02:38:08.015Z,4.35
2022-10-05T02:43:19.599Z,4.97
2022-10-05T02:48:31.247Z,5.30
2022-10-05T02:53:37.799Z,3.65
2022-10-05T02:58:45.982Z,5.07
2022-10-05T03:03:53.286Z,3.17
2022-10-05T03:08:59.837Z,3.85
2022-10-05T03:14:05.853Z,5.93
2022-10-05T03:19:17.150Z,4.90
2022-10-05T03:24:34.842Z,5.95
2022-10-05T03:29:40.385Z,11.35
2022-10-05T03:34:48.728Z,4.90
2022-10-05T03:39:51.903Z,5.68
2022-10-05T03:45:00.148Z,6.78
2022-10-05T03:50:23.452Z,6.70
2022-10-05T03:55:33.217Z,5.50
2022-10-05T04:00:34.802Z,6.60
2022-10-05T04:05:41.167Z,4.90
2022-10-05T04:10:44.070Z,6.18
2022-10-05T04:15:46.342Z,4.20
2022-10-05T04:20:46.954Z,7.70
2022-10-05T04:25:50.454Z,7.45
2022-10-05T04:30:52.199Z,7.57
2022-10-05T04:36:32.795Z,5.70
2022-10-05T04:47:24.459Z,8.18
2022-10-05T04:52:39.553Z,7.90
2022-10-05T04:57:58.678Z,6.00
2022-10-05T05:03:27.285Z,8.10
2022-10-05T05:14:28.824Z,9.55
2022-10-05T05:19:40.359Z,8.55
2022-10-05T05:24:56.970Z,5.47
2022-10-05T05:30:04.074Z,6.00
2022-10-05T05:35:33.706Z,6.45
2022-10-05T05:40:36.281Z,11.45
2022-10-05T05:45:44.802Z,10.25
2022-10-05T05:50:55.931Z,5.10
2022-10-05T05:56:01.187Z,6.32
2022-10-05T06:01:20.257Z,5.88
2022-10-05T06:06:30.504Z,6.90
2022-10-05T06:11:32.997Z,8.02
2022-10-05T06:16:37.098Z,11.02
2022-10-05T06:21:44.992Z,6.85
2022-10-05T06:27:19.112Z,6.68
2022-10-05T06:32:26.247Z,6.32
2022-10-05T06:37:38.607Z,9.13
2022-10-05T06:43:03.676Z,10.02
2022-10-05T06:48:11.921Z,10.10
2022-10-05T06:53:59.876Z,8.20
2022-10-05T06:59:09.927Z,5.22
2022-10-05T07:04:21.708Z,6.85
2022-10-05T07:09:31.612Z,7.82
2022-10-05T07:15:01.972Z,6.13
2022-10-05T07:20:08.571Z,7.85
2022-10-05T07:25:14.996Z,8.30
2022-10-05T07:30:15.603Z,4.43
2022-10-05T07:35:38.933Z,6.35
2022-10-05T07:40:47.243Z,7.00
2022-10-05T07:45:51.890Z,7.55
2022-10-05T07:51:02.260Z,7.50
2022-10-05T07:56:07.411Z,6.43
2022-10-05T08:01:23.147Z,6.35
2022-10-05T08:06:51.144Z,5.88
2022-10-05T08:12:08.850Z,12.50
2022-10-05T08:17:31.482Z,8.27
2022-10-05T08:22:46.188Z,5.70
2022-10-05T08:27:54.597Z,10.25
2022-10-05T08:33:07.323Z,6.82
2022-10-05T08:38:13.256Z,7.18
2022-10-05T08:44:12.269Z,6.65
2022-10-05T08:49:50.468Z,7.78
2022-10-05T08:55:07.519Z,6.22
2022-10-05T09:00:11.546Z,4.28
2022-10-05T09:05:44.225Z,5.85
2022-10-05T09:11:01.932Z,4.72
2022-10-05T09:16:35.593Z,5.00
2022-10-05T09:22:03.889Z,3.25
2022-10-05T09:27:10.194Z,10.82
2022-10-05T09:32:43.922Z,5.10
2022-10-05T09:38:41.627Z,4.72
2022-10-05T09:44:28.717Z,5.32
2022-10-05T09:50:07.867Z,3.83
2022-10-05T09:55:30.535Z,4.65
2022-10-05T10:00:35.767Z,7.53
2022-10-05T10:06:35.332Z,4.60
2022-10-05T10:11:53.472Z,4.57
2022-10-05T10:17:30.230Z,6.18
2022-10-05T10:23:24.845Z,7.65
2022-10-05T10:29:03.483Z,7.25
2022-10-05T10:34:38.078Z,9.85
2022-10-05T10:40:11.722Z,7.30
2022-10-05T10:45:26.251Z,13.70
2022-10-05T10:51:05.664Z,9.45
2022-10-05T10:56:39.845Z,9.50
2022-10-05T11:02:01.666Z,10.70
2022-10-05T11:07:36.853Z,8.73
2022-10-05T11:13:28.263Z,7.80
2022-10-05T11:18:41.298Z,6.22
2022-10-05T11:24:38.164Z,5.15
2022-10-05T11:30:02.810Z,7.00
2022-10-05T11:35:37.006Z,5.07
2022-10-05T11:41:25.613Z,7.50
2022-10-05T11:46:52.390Z,4.60
2022-10-05T11:52:03.946Z,4.87
2022-10-05T11:57:04.796Z,3.15
2022-10-05T12:02:47.644Z,8.70
2022-10-05T12:08:40.575Z,10.20
2022-10-05T12:13:47.329Z,10.30
2022-10-05T12:19:42.146Z,6.88
2022-10-05T12:25:01.784Z,5.45
2022-10-05T12:30:12.380Z,4.47
2022-10-05T12:35:43.899Z,4.53
2022-10-05T12:40:51.053Z,6.93
2022-10-05T12:46:17.989Z,3.70
2022-10-05T12:51:26.523Z,3.63
2022-10-05T12:56:54.788Z,4.72
2022-10-05T13:02:01.922Z,3.22
2022-10-05T13:07:32.099Z,3.70
2022-10-05T13:12:44.284Z,3.67
2022-10-05T13:17:51.285Z,3.88
2022-10-05T13:22:59.881Z,2.85
2022-10-05T13:28:21.779Z,3.83
2022-10-05T13:34:16.898Z,6.90
2022-10-05T13:45:43.133Z,5.30
2022-10-05T13:50:48.356Z,2.88
2022-10-05T14:01:43.051Z,3.95
2022-10-05T14:06:44.651Z,4.47
2022-10-05T14:11:53.195Z,3.10
2022-10-05T14:17:00.996Z,5.03
2022-10-05T14:22:31.544Z,6.38
2022-10-05T14:27:36.164Z,3.85
2022-10-05T14:32:56.173Z,4.85
2022-10-05T14:37:59.789Z,4.68
2022-10-05T14:43:08.860Z,4.28
2022-10-05T14:48:11.050Z,5.75
2022-10-05T14:54:19.253Z,4.75
2022-10-05T14:59:35.076Z,8.35
2022-10-05T15:04:49.406Z,5.88
2022-10-05T15:10:01.531Z,4.57
2022-10-05T15:15:26.670Z,5.95
2022-10-05T15:20:36.678Z,3.90
2022-10-05T15:26:08.749Z,7.97
2022-10-05T15:32:00.921Z,7.20
2022-10-05T15:38:10.225Z,7.28
2022-10-05T15:43:24.110Z,8.30
2022-10-05T15:48:29.323Z,10.48
2022-10-05T15:53:47.192Z,4.88
2022-10-05T15:59:17.620Z,4.30
2022-10-05T16:04:26.165Z,6.03
2022-10-05T16:10:10.575Z,7.95
2022-10-05T16:21:36.321Z,16.00
2022-10-05T16:39:04.922Z,17.23
2022-10-05T16:44:33.343Z,14.50
2022-10-05T16:49:52.073Z,14.35
2022-10-05T16:55:06.441Z,19.67
2022-10-05T17:01:04.378Z,16.05
2022-10-05T17:06:35.146Z,16.85
2022-10-05T17:11:59.767Z,14.32
2022-10-05T17:17:51.909Z,16.20
2022-10-05T17:29:15.544Z,15.05
2022-10-05T17:34:33.860Z,15.65
2022-10-05T17:39:51.304Z,12.27
2022-10-05T17:45:07.667Z,11.45
2022-10-05T17:51:05.638Z,12.32
2022-10-05T17:57:16.333Z,19.13
2022-10-05T18:02:49.642Z,14.15
2022-10-05T18:08:41.420Z,14.82
2022-10-05T18:13:49.180Z,10.20
2022-10-05T18:19:00.563Z,11.23
2022-10-05T18:24:23.536Z,15.30
2022-10-05T18:30:11.097Z,14.27
2022-10-05T18:36:56.647Z,13.65
2022-10-05T18:42:24.138Z,13.63
2022-10-05T18:47:34.667Z,11.18
2022-10-05T18:53:28.419Z,15.63
2022-10-05T18:58:52.124Z,10.75
2022-10-05T19:04:14.387Z,8.95
2022-10-05T19:09:26.385Z,10.35
2022-10-05T19:14:34.901Z,6.57
2022-10-05T19:19:57.605Z,6.72
2022-10-05T19:31:18.221Z,11.47
2022-10-05T19:36:41.976Z,8.88
2022-10-05T19:42:09.025Z,5.38
2022-10-05T19:47:21.927Z,6.15
2022-10-05T19:52:30.917Z,5.15
2022-10-05T20:03:50.549Z,9.05
2022-10-05T20:08:57.644Z,6.28
2022-10-05T20:14:19.354Z,8.07
2022-10-05T20:20:04.676Z,8.52
2022-10-05T20:25:13.334Z,8.35
2022-10-05T20:30:14.725Z,7.05
2022-10-05T20:35:29.540Z,10.55
2022-10-05T20:40:29.647Z,10.10
2022-10-05T20:46:22.658Z,10.52
2022-10-05T20:51:24.529Z,8.95
2022-10-05T20:56:28.491Z,8.40
2022-10-05T21:01:31.259Z,10.32
2022-10-05T21:06:30.402Z,7.65
2022-10-05T21:11:30.372Z,9.55
2022-10-05T21:16:30.698Z,7.75
2022-10-05T21:21:30.424Z,9.70
2022-10-05T21:26:28.558Z,10.63
2022-10-05T21:31:29.121Z,9.73
2022-10-05T21:36:31.863Z,9.35
2022-10-05T21:41:36.614Z,8.88
2022-10-05T21:47:15.163Z,10.25
2022-10-05T21:52:20.688Z,9.70
2022-10-05T21:57:22.555Z,10.65
2022-10-05T22:02:19.617Z,14.10
2022-10-05T22:07:19.396Z,11.05
2022-10-05T22:12:19.290Z,9.52
2022-10-05T22:17:24.333Z,15.15
2022-10-05T22:22:22.142Z,13.05
2022-10-05T22:27:43.469Z,10.90
2022-10-05T22:32:44.394Z,11.20
2022-10-05T22:38:18.939Z,7.18
2022-10-05T22:43:18.555Z,8.52
2022-10-05T22:48:16.577Z,7.55
2022-10-05T22:53:14.788Z,5.00
2022-10-05T22:58:12.524Z,6.90
2022-10-05T23:03:10.557Z,6.95
2022-10-05T23:08:09.288Z,7.45
2022-10-05T23:13:07.033Z,9.57
2022-10-05T23:18:04.477Z,10.13
2022-10-05T23:23:05.612Z,4.57
2022-10-05T23:28:04.727Z,6.38
2022-10-05T23:33:16.496Z,6.13
2022-10-05T23:38:37.030Z,5.45
2022-10-05T23:43:37.708Z,7.00
2022-10-05T23:48:37.514Z,7.88
2022-10-05T23:53:35.595Z,6.20
2022-10-05T23:58:53.254Z,7.95
